Argonne, South Dakota
Current Conditions -  °F | °C
As of 7:35 AM on Saturday 25 Oct 2014 (Local Time) from KMDS Reporting Station
Clear Clear  
Wind Chill: 37°   Ceiling: Unl
Heat Index: 41°   Visibility: 10mi
Dew Point: 36°   Wind: 6mph
Humidity: 81%   Direction: 310°NW
Pressure: 30.11"   Gusts: NA
Location:  44.0529°N, 97.5161°W
Report Text: KMDS 251235Z AUTO 31005KT 10SM CLR 05/02 A3011 RMK AO2
Loading
Personal Weather Stations






























Interactive Weather Map New forecast layout! Learn more

10-Day Weather Forecast

Advertisements
Track Severe Weather on mobile